createdAt,value
2022-11-06T00:02:09.744Z,10.32
2022-11-06T00:04:39.712Z,10.40
2022-11-06T00:07:07.795Z,11.05
2022-11-06T00:09:35.054Z,10.73
2022-11-06T00:12:01.661Z,12.38
2022-11-06T00:14:28.262Z,10.68
2022-11-06T00:16:54.883Z,10.68
2022-11-06T00:19:21.542Z,10.15
2022-11-06T00:21:48.129Z,11.88
2022-11-06T00:24:15.726Z,12.00
2022-11-06T00:26:42.567Z,12.57
2022-11-06T00:29:13.756Z,12.75
2022-11-06T00:31:40.411Z,13.90
2022-11-06T00:34:07.649Z,14.68
2022-11-06T00:36:34.971Z,14.38
2022-11-06T00:39:01.939Z,14.07
2022-11-06T00:41:28.725Z,13.13
2022-11-06T00:43:58.256Z,13.63
2022-11-06T00:46:24.925Z,12.32
2022-11-06T00:48:53.184Z,14.25
2022-11-06T00:51:23.281Z,13.00
2022-11-06T00:53:54.669Z,13.90
2022-11-06T00:56:23.228Z,14.25
2022-11-06T00:58:50.391Z,13.63
2022-11-06T01:01:19.089Z,12.48
2022-11-06T01:03:47.900Z,12.10
2022-11-06T01:06:18.890Z,12.65
2022-11-06T01:08:46.357Z,12.43
2022-11-06T01:11:14.892Z,10.85
2022-11-06T01:13:42.634Z,11.77
2022-11-06T01:16:11.709Z,11.23
2022-11-06T01:18:39.168Z,11.93
2022-11-06T01:21:07.915Z,11.43
2022-11-06T01:23:34.999Z,11.50
2022-11-06T01:26:04.745Z,11.90
2022-11-06T01:28:32.092Z,11.38
2022-11-06T01:31:09.170Z,10.75
2022-11-06T01:33:36.454Z,10.43
2022-11-06T01:36:04.789Z,10.70
2022-11-06T01:38:31.668Z,10.90
2022-11-06T01:40:59.278Z,11.77
2022-11-06T01:43:48.497Z,11.43
2022-11-06T01:46:16.932Z,13.50
2022-11-06T01:48:50.059Z,12.38
2022-11-06T01:51:17.706Z,10.73
2022-11-06T01:53:44.649Z,13.20
2022-11-06T01:56:12.892Z,13.77
2022-11-06T01:58:43.265Z,14.48
2022-11-06T02:01:10.142Z,12.85
2022-11-06T02:03:38.876Z,14.90
2022-11-06T02:06:07.075Z,12.73
2022-11-06T02:08:33.819Z,13.73
2022-11-06T02:11:00.480Z,13.27
2022-11-06T02:14:01.783Z,13.48
2022-11-06T02:16:51.841Z,13.10
2022-11-06T02:19:48.845Z,11.68
2022-11-06T02:22:27.355Z,10.90
2022-11-06T02:25:14.017Z,10.82
2022-11-06T02:27:46.435Z,11.52
2022-11-06T02:30:15.876Z,12.05
2022-11-06T02:32:58.521Z,11.35
2022-11-06T02:35:55.521Z,12.43
2022-11-06T02:38:27.173Z,12.57
2022-11-06T02:40:59.846Z,10.48
2022-11-06T02:43:34.292Z,12.85
2022-11-06T02:46:11.658Z,11.80
2022-11-06T02:48:44.633Z,12.45
2022-11-06T02:51:15.200Z,13.80
2022-11-06T02:53:45.621Z,13.38
2022-11-06T02:56:18.402Z,11.38
2022-11-06T02:58:58.915Z,10.40
2022-11-06T03:01:31.016Z,10.85
2022-11-06T03:04:03.733Z,10.52
2022-11-06T03:06:49.135Z,12.00
2022-11-06T03:09:20.778Z,12.23
2022-11-06T03:11:59.635Z,11.23
2022-11-06T03:14:36.534Z,12.18
2022-11-06T03:17:25.121Z,11.00
2022-11-06T03:20:17.926Z,11.65
2022-11-06T03:23:19.679Z,11.07
2022-11-06T03:26:02.739Z,9.23
2022-11-06T03:28:35.894Z,9.95
2022-11-06T03:31:09.279Z,11.52
2022-11-06T03:33:50.791Z,11.32
2022-11-06T03:36:26.492Z,11.45
2022-11-06T03:38:58.846Z,11.48
2022-11-06T03:41:36.776Z,10.73
2022-11-06T03:44:06.658Z,10.88
2022-11-06T03:46:38.612Z,11.43
2022-11-06T03:49:11.255Z,11.23
2022-11-06T03:51:44.726Z,12.63
2022-11-06T03:54:15.534Z,10.88
2022-11-06T03:56:51.253Z,11.73
2022-11-06T03:59:23.384Z,11.00
2022-11-06T04:01:53.816Z,11.02
2022-11-06T04:04:44.952Z,11.48
2022-11-06T04:07:16.100Z,12.35
2022-11-06T04:10:03.004Z,11.70
2022-11-06T04:15:17.987Z,12.00
2022-11-06T04:17:44.602Z,12.02
2022-11-06T04:20:35.960Z,12.55
2022-11-06T04:23:14.224Z,13.77
2022-11-06T04:26:15.849Z,12.98
2022-11-06T04:28:52.842Z,15.45
2022-11-06T04:31:31.301Z,15.90
2022-11-06T04:34:08.142Z,17.38
2022-11-06T04:36:55.625Z,18.73
2022-11-06T04:39:38.975Z,20.60
2022-11-06T04:42:23.381Z,22.95
2022-11-06T04:44:55.346Z,23.38
2022-11-06T04:47:24.014Z,28.52
2022-11-06T04:49:56.347Z,30.33
2022-11-06T04:52:27.421Z,30.83
2022-11-06T04:54:57.376Z,31.58
2022-11-06T04:57:24.813Z,31.38
2022-11-06T04:59:51.833Z,30.13
2022-11-06T05:02:18.867Z,30.25
2022-11-06T05:04:45.708Z,30.05
2022-11-06T05:07:13.868Z,33.38
2022-11-06T05:09:41.720Z,33.40
2022-11-06T05:12:08.371Z,34.75
2022-11-06T05:14:34.948Z,39.03
2022-11-06T05:17:01.805Z,37.45
2022-11-06T05:19:28.368Z,38.47
2022-11-06T05:22:10.206Z,38.97
2022-11-06T05:24:36.772Z,39.83
2022-11-06T05:27:03.473Z,39.38
2022-11-06T05:29:30.193Z,41.50
2022-11-06T05:31:56.818Z,41.30
2022-11-06T05:34:23.374Z,41.47
2022-11-06T05:36:49.970Z,39.05
2022-11-06T05:39:16.633Z,39.45
2022-11-06T05:41:43.182Z,38.83
2022-11-06T05:44:10.366Z,40.00
2022-11-06T05:46:52.291Z,38.83
2022-11-06T05:49:19.217Z,38.10
2022-11-06T05:51:46.561Z,36.25
2022-11-06T05:54:13.172Z,38.55
2022-11-06T05:56:39.745Z,35.72
2022-11-06T05:59:06.395Z,34.97
2022-11-06T06:01:34.287Z,36.25
2022-11-06T06:04:01.488Z,34.70
2022-11-06T06:06:28.476Z,34.42
2022-11-06T06:08:55.091Z,33.30
2022-11-06T06:11:21.702Z,34.38
2022-11-06T06:13:48.542Z,33.05
2022-11-06T06:16:16.020Z,34.42
2022-11-06T06:18:42.673Z,35.00
2022-11-06T06:21:09.271Z,34.22
2022-11-06T06:23:35.853Z,34.53
2022-11-06T06:26:02.488Z,33.63
2022-11-06T06:28:29.131Z,33.30
2022-11-06T06:31:01.032Z,34.33
2022-11-06T06:33:28.272Z,30.77
2022-11-06T06:35:54.966Z,28.05
2022-11-06T06:38:21.606Z,27.08
2022-11-06T06:40:48.623Z,33.13
2022-11-06T06:43:15.193Z,26.10
2022-11-06T06:45:41.807Z,21.75
2022-11-06T06:48:09.283Z,20.45
2022-11-06T06:50:35.891Z,20.75
2022-11-06T06:53:02.669Z,21.15
2022-11-06T06:55:29.501Z,22.05
2022-11-06T06:57:58.486Z,20.45
2022-11-06T07:00:25.314Z,22.15
2022-11-06T07:02:52.474Z,21.60
2022-11-06T07:05:19.451Z,22.40
2022-11-06T07:07:46.445Z,20.92
2022-11-06T07:10:13.077Z,21.15
2022-11-06T07:12:39.619Z,21.00
2022-11-06T07:15:07.029Z,21.42
2022-11-06T07:17:33.611Z,20.98
2022-11-06T07:20:00.219Z,22.40
2022-11-06T07:22:33.785Z,21.50
2022-11-06T07:25:04.338Z,21.77
2022-11-06T07:27:30.946Z,21.48
2022-11-06T07:29:57.608Z,19.65
2022-11-06T07:32:24.206Z,19.45
2022-11-06T07:34:50.819Z,21.75
2022-11-06T07:37:17.572Z,21.98
2022-11-06T07:39:44.393Z,21.42
2022-11-06T07:42:10.981Z,19.25
2022-11-06T07:44:37.561Z,19.35
2022-11-06T07:47:04.222Z,20.02
2022-11-06T07:49:31.021Z,20.77
2022-11-06T07:52:00.858Z,20.48
2022-11-06T07:54:27.432Z,23.90
2022-11-06T07:56:54.092Z,23.88
2022-11-06T07:59:20.663Z,25.02
2022-11-06T08:01:47.389Z,24.48
2022-11-06T08:04:14.047Z,22.30
2022-11-06T08:06:43.843Z,23.13
2022-11-06T08:09:10.433Z,23.50
2022-11-06T08:11:37.237Z,21.02
2022-11-06T08:14:03.840Z,23.05
2022-11-06T08:16:31.247Z,23.58
2022-11-06T08:18:57.975Z,21.13
2022-11-06T08:21:24.629Z,21.13
2022-11-06T08:23:51.252Z,22.92
2022-11-06T08:26:18.323Z,22.15
2022-11-06T08:28:45.021Z,22.05
2022-11-06T08:31:11.718Z,21.10
2022-11-06T08:33:39.557Z,21.38
2022-11-06T08:36:07.953Z,25.63
2022-11-06T08:38:36.975Z,25.13
2022-11-06T08:41:05.654Z,25.33
2022-11-06T08:43:32.357Z,25.25
2022-11-06T08:46:00.011Z,22.45
2022-11-06T08:48:27.533Z,20.90
2022-11-06T08:50:54.137Z,19.33
2022-11-06T08:53:21.199Z,19.52
2022-11-06T08:55:59.454Z,16.95
2022-11-06T08:58:26.315Z,16.42
2022-11-06T09:00:52.990Z,15.70
2022-11-06T09:03:19.577Z,15.60
2022-11-06T09:05:46.444Z,17.50
2022-11-06T09:08:14.397Z,17.90
2022-11-06T09:10:43.057Z,18.70
2022-11-06T09:13:11.556Z,19.33
2022-11-06T09:15:39.195Z,19.48
2022-11-06T09:18:06.084Z,19.73
2022-11-06T09:20:32.712Z,18.80
2022-11-06T09:23:03.769Z,18.83
2022-11-06T09:25:31.314Z,19.75
2022-11-06T09:27:59.922Z,21.13
2022-11-06T09:30:29.772Z,21.10
2022-11-06T09:32:59.158Z,18.58
2022-11-06T09:35:27.216Z,20.25
2022-11-06T09:37:54.219Z,19.83
2022-11-06T09:40:27.410Z,20.92
2022-11-06T09:43:58.308Z,21.10
2022-11-06T09:46:29.640Z,23.20
2022-11-06T09:49:27.821Z,24.23
2022-11-06T09:52:03.552Z,22.30
2022-11-06T09:54:36.428Z,22.60
2022-11-06T09:57:11.466Z,21.67
2022-11-06T09:59:41.451Z,24.10
2022-11-06T10:02:29.220Z,23.60
2022-11-06T10:05:11.206Z,23.23
2022-11-06T10:07:41.258Z,23.45
2022-11-06T10:10:15.278Z,21.90
2022-11-06T10:13:06.481Z,21.52
2022-11-06T10:15:42.256Z,20.85
2022-11-06T10:18:24.025Z,21.33
2022-11-06T10:20:53.115Z,21.65
2022-11-06T10:23:34.816Z,22.88
2022-11-06T10:26:02.395Z,22.30
2022-11-06T10:28:55.895Z,23.73
2022-11-06T10:31:36.677Z,24.88
2022-11-06T10:34:33.871Z,24.63
2022-11-06T10:37:05.088Z,26.83
2022-11-06T10:39:35.183Z,30.40
2022-11-06T10:42:10.553Z,36.70
2022-11-06T10:44:41.693Z,37.17
2022-11-06T10:47:17.427Z,37.97
2022-11-06T10:49:46.561Z,36.42
2022-11-06T10:52:29.346Z,35.42
2022-11-06T10:55:10.015Z,36.92
2022-11-06T10:57:50.019Z,36.05
2022-11-06T11:00:16.919Z,31.83
2022-11-06T11:02:50.061Z,31.85
2022-11-06T11:05:19.303Z,36.22
2022-11-06T11:07:48.773Z,35.25
2022-11-06T11:10:36.379Z,36.03
2022-11-06T11:13:08.648Z,39.03
2022-11-06T11:15:44.834Z,38.13
2022-11-06T11:18:12.691Z,33.90
2022-11-06T11:20:42.817Z,31.02
2022-11-06T11:23:22.060Z,29.88
2022-11-06T11:25:51.948Z,26.77
2022-11-06T11:28:30.007Z,25.15
2022-11-06T11:31:13.639Z,21.02
2022-11-06T11:33:47.583Z,21.48
2022-11-06T11:36:14.237Z,18.92
2022-11-06T11:38:42.902Z,17.50
2022-11-06T11:41:14.847Z,17.98
2022-11-06T11:43:42.622Z,18.92
2022-11-06T11:46:09.199Z,16.88
2022-11-06T11:48:44.575Z,16.70
2022-11-06T11:51:41.924Z,16.90
2022-11-06T11:54:11.947Z,17.60
2022-11-06T11:57:09.068Z,17.40
2022-11-06T11:59:55.409Z,17.27
2022-11-06T12:02:29.338Z,17.55
2022-11-06T12:05:03.368Z,17.17
2022-11-06T12:07:39.866Z,15.48
2022-11-06T12:10:32.553Z,13.68
2022-11-06T12:13:02.030Z,13.73
2022-11-06T12:15:45.038Z,13.40
2022-11-06T12:18:15.943Z,13.27
2022-11-06T12:20:42.976Z,13.30
2022-11-06T12:23:31.302Z,12.77
2022-11-06T12:26:27.113Z,11.68
2022-11-06T12:29:04.841Z,12.45
2022-11-06T12:31:32.818Z,11.65
2022-11-06T12:34:06.967Z,11.88
2022-11-06T12:36:41.365Z,12.55
2022-11-06T12:39:17.647Z,12.35
2022-11-06T12:44:16.390Z,10.82
2022-11-06T12:47:14.831Z,11.35
2022-11-06T12:49:56.703Z,10.98
2022-11-06T12:52:54.151Z,10.38
2022-11-06T12:55:24.944Z,10.00
2022-11-06T12:57:58.188Z,9.35
2022-11-06T13:00:36.522Z,8.43
2022-11-06T13:03:05.676Z,8.20
2022-11-06T13:05:37.974Z,7.80
2022-11-06T13:08:35.403Z,7.53
2022-11-06T13:11:14.825Z,9.02
2022-11-06T13:14:03.276Z,8.55
2022-11-06T13:16:30.066Z,9.85
2022-11-06T13:19:09.267Z,9.15
2022-11-06T13:21:53.070Z,8.15
2022-11-06T13:24:35.289Z,7.10
2022-11-06T13:27:26.761Z,5.60
2022-11-06T13:29:59.342Z,6.22
2022-11-06T13:32:30.931Z,7.13
2022-11-06T13:35:00.587Z,7.60
2022-11-06T13:37:38.151Z,7.32
2022-11-06T13:40:39.790Z,6.25
2022-11-06T13:43:18.216Z,6.10
2022-11-06T13:46:00.180Z,6.28
2022-11-06T13:48:41.559Z,5.80
2022-11-06T13:51:16.466Z,4.60
2022-11-06T13:53:52.911Z,3.35
2022-11-06T13:56:21.904Z,3.40
2022-11-06T13:59:33.697Z,3.47
2022-11-06T14:02:25.320Z,4.32
2022-11-06T14:05:10.884Z,4.07
2022-11-06T14:07:40.336Z,4.25
2022-11-06T14:10:18.720Z,4.30
2022-11-06T14:12:48.020Z,4.25
2022-11-06T14:15:38.426Z,4.13
2022-11-06T14:18:05.945Z,3.75
2022-11-06T14:20:35.522Z,4.72
2022-11-06T14:23:32.655Z,4.28
2022-11-06T14:26:03.224Z,3.13
2022-11-06T14:28:33.791Z,3.30
2022-11-06T14:31:21.545Z,2.13
2022-11-06T14:33:49.418Z,1.70
2022-11-06T14:36:34.315Z,1.55
2022-11-06T14:39:02.329Z,1.83
2022-11-06T14:41:53.921Z,1.95
2022-11-06T14:44:26.847Z,1.70
2022-11-06T14:46:59.806Z,2.17
2022-11-06T14:49:42.061Z,2.22
2022-11-06T14:52:13.717Z,2.55
2022-11-06T14:54:50.506Z,2.28
2022-11-06T14:57:33.518Z,1.80
2022-11-06T15:00:01.145Z,2.00
2022-11-06T15:02:31.109Z,1.70
2022-11-06T15:05:05.693Z,2.13
2022-11-06T15:08:07.839Z,2.53
2022-11-06T15:10:51.327Z,2.78
2022-11-06T15:13:18.127Z,2.72
2022-11-06T15:16:03.594Z,3.40
2022-11-06T15:18:32.985Z,2.25
2022-11-06T15:21:05.870Z,2.30
2022-11-06T15:23:49.400Z,2.63
2022-11-06T15:26:25.425Z,2.33
2022-11-06T15:28:58.259Z,1.90
2022-11-06T15:31:27.877Z,2.50
2022-11-06T15:34:03.939Z,2.63
2022-11-06T15:36:39.521Z,2.13
2022-11-06T15:39:24.362Z,2.33
2022-11-06T15:41:52.240Z,2.70
2022-11-06T15:44:23.247Z,2.60
2022-11-06T15:46:55.305Z,2.80
2022-11-06T15:49:22.492Z,2.72
2022-11-06T15:52:02.252Z,2.88
2022-11-06T15:54:39.142Z,2.58
2022-11-06T15:57:22.425Z,3.47
2022-11-06T15:59:49.051Z,2.90
2022-11-06T16:02:19.761Z,3.42
2022-11-06T16:04:47.555Z,2.90
2022-11-06T16:07:16.028Z,2.80
2022-11-06T16:09:46.713Z,2.70
2022-11-06T16:12:17.174Z,3.10
2022-11-06T16:14:45.406Z,2.78
2022-11-06T16:17:17.551Z,3.45
2022-11-06T16:19:47.840Z,2.92
2022-11-06T16:22:17.962Z,3.45
2022-11-06T16:24:54.424Z,3.05
2022-11-06T16:27:23.513Z,3.20
2022-11-06T16:29:58.116Z,2.88
2022-11-06T16:32:28.179Z,2.75
2022-11-06T16:34:55.356Z,3.15
2022-11-06T16:37:40.233Z,3.05
2022-11-06T16:40:44.846Z,4.50
2022-11-06T16:43:16.902Z,6.13
2022-11-06T16:45:51.898Z,5.63
2022-11-06T16:48:38.251Z,6.75
2022-11-06T16:51:07.216Z,6.63
2022-11-06T16:53:52.739Z,6.28
2022-11-06T16:56:25.674Z,8.30
2022-11-06T16:59:06.253Z,8.75
2022-11-06T17:01:39.485Z,8.18
2022-11-06T17:04:06.743Z,8.20
2022-11-06T17:06:36.592Z,7.43
2022-11-06T17:09:28.489Z,8.45
2022-11-06T17:11:58.526Z,7.65
2022-11-06T17:14:25.734Z,7.57
2022-11-06T17:16:56.192Z,7.35
2022-11-06T17:19:22.894Z,7.82
2022-11-06T17:21:50.555Z,7.97
2022-11-06T17:24:35.810Z,7.93
2022-11-06T17:27:03.036Z,7.93
2022-11-06T17:29:29.730Z,8.25
2022-11-06T17:31:56.729Z,9.38
2022-11-06T17:34:23.295Z,8.45
2022-11-06T17:36:49.905Z,9.10
2022-11-06T17:39:16.481Z,8.48
2022-11-06T17:41:43.193Z,7.53
2022-11-06T17:44:12.372Z,6.97
2022-11-06T17:46:41.438Z,7.43
2022-11-06T17:49:14.285Z,7.95
2022-11-06T17:51:53.095Z,8.23
2022-11-06T17:54:22.539Z,8.50
2022-11-06T17:56:51.418Z,9.88
2022-11-06T17:59:18.459Z,10.93
2022-11-06T18:01:47.463Z,10.13
2022-11-06T18:04:14.576Z,9.82
2022-11-06T18:06:44.637Z,9.65
2022-11-06T18:09:11.970Z,9.10
2022-11-06T18:11:38.590Z,8.55
2022-11-06T18:14:05.212Z,9.20
2022-11-06T18:16:37.514Z,8.85
2022-11-06T18:19:10.225Z,8.32
2022-11-06T18:21:37.105Z,9.27
2022-11-06T18:24:04.274Z,9.70
2022-11-06T18:26:30.912Z,9.80
2022-11-06T18:28:59.930Z,9.77
2022-11-06T18:31:26.549Z,8.75
2022-11-06T18:33:53.072Z,8.43
2022-11-06T18:36:19.633Z,8.52
2022-11-06T18:38:46.501Z,7.65
2022-11-06T18:41:15.970Z,7.63
2022-11-06T18:43:42.858Z,8.02
2022-11-06T18:46:12.273Z,6.75
2022-11-06T18:48:39.488Z,7.15
2022-11-06T18:51:10.251Z,7.30
2022-11-06T18:53:37.815Z,6.53
2022-11-06T18:56:04.994Z,6.28
2022-11-06T18:58:31.686Z,6.40
2022-11-06T19:01:01.805Z,6.53
2022-11-06T19:03:28.798Z,5.95
2022-11-06T19:05:55.359Z,5.85
2022-11-06T19:08:21.909Z,5.78
2022-11-06T19:10:48.538Z,6.43
2022-11-06T19:13:15.183Z,7.63
2022-11-06T19:15:42.908Z,7.43
2022-11-06T19:18:10.123Z,7.75
2022-11-06T19:20:40.377Z,7.63
2022-11-06T19:23:07.466Z,8.15
2022-11-06T19:25:34.201Z,7.35
2022-11-06T19:28:00.812Z,6.78
2022-11-06T19:30:27.385Z,5.82
2022-11-06T19:32:53.986Z,5.75
2022-11-06T19:35:20.851Z,5.43
2022-11-06T19:37:47.459Z,5.00
2022-11-06T19:40:14.024Z,6.28
2022-11-06T19:42:40.650Z,5.68
2022-11-06T19:45:10.691Z,5.60
2022-11-06T19:47:38.631Z,5.13
2022-11-06T19:50:05.895Z,5.30
2022-11-06T19:52:42.684Z,4.90
2022-11-06T19:55:25.661Z,5.72
2022-11-06T19:57:57.829Z,5.63
2022-11-06T20:00:24.471Z,5.18
2022-11-06T20:02:51.291Z,5.60
2022-11-06T20:05:18.103Z,5.07
2022-11-06T20:07:44.727Z,5.07
2022-11-06T20:10:14.513Z,5.55
2022-11-06T20:12:41.101Z,4.90
2022-11-06T20:15:08.217Z,7.65
2022-11-06T20:17:34.777Z,6.93
2022-11-06T20:20:01.398Z,7.15
2022-11-06T20:22:28.241Z,6.18
2022-11-06T20:24:54.821Z,5.97
2022-11-06T20:27:21.572Z,6.60
2022-11-06T20:29:48.127Z,6.40
2022-11-06T20:35:02.625Z,6.07
2022-11-06T20:37:29.556Z,6.18
2022-11-06T20:39:56.161Z,5.97
2022-11-06T20:42:22.933Z,6.20
2022-11-06T20:44:49.664Z,5.65
2022-11-06T20:47:16.314Z,5.95
2022-11-06T20:49:43.060Z,7.43
2022-11-06T20:52:14.628Z,6.88
2022-11-06T20:54:46.803Z,6.00
2022-11-06T20:57:14.789Z,6.43
2022-11-06T20:59:42.679Z,5.70
2022-11-06T21:02:11.429Z,5.53
2022-11-06T21:04:38.329Z,6.68
2022-11-06T21:07:04.897Z,5.68
2022-11-06T21:09:34.611Z,5.25
2022-11-06T21:12:01.207Z,5.32
2022-11-06T21:14:27.854Z,5.05
2022-11-06T21:16:56.523Z,4.78
2022-11-06T21:19:23.936Z,5.47
2022-11-06T21:21:51.797Z,5.15
2022-11-06T21:24:18.380Z,5.28
2022-11-06T21:26:45.020Z,5.50
2022-11-06T21:29:11.988Z,5.05
2022-11-06T21:31:44.035Z,5.55
2022-11-06T21:34:14.182Z,5.20
2022-11-06T21:36:40.770Z,4.90
2022-11-06T21:39:10.965Z,5.15
2022-11-06T21:41:38.627Z,5.32
2022-11-06T21:44:06.428Z,4.35
2022-11-06T21:46:34.108Z,4.53
2022-11-06T21:49:00.968Z,4.72
2022-11-06T21:51:30.576Z,5.05
2022-11-06T21:54:12.752Z,5.03
2022-11-06T21:56:40.948Z,4.70
2022-11-06T21:59:11.002Z,4.85
2022-11-06T22:01:39.370Z,4.38
2022-11-06T22:04:06.973Z,5.72
2022-11-06T22:06:34.070Z,4.97
2022-11-06T22:09:02.937Z,5.35
2022-11-06T22:11:32.155Z,5.30
2022-11-06T22:14:00.953Z,5.68
2022-11-06T22:16:30.575Z,5.28
2022-11-06T22:18:58.297Z,5.45
2022-11-06T22:21:27.651Z,5.93
2022-11-06T22:23:54.947Z,4.80
2022-11-06T22:26:25.086Z,5.07
2022-11-06T22:28:55.049Z,6.18
2022-11-06T22:31:21.779Z,5.72
2022-11-06T22:33:53.386Z,5.47
2022-11-06T22:36:20.682Z,5.28
2022-11-06T22:38:48.193Z,5.53
2022-11-06T22:41:17.421Z,5.93
2022-11-06T22:43:44.739Z,5.63
2022-11-06T22:46:16.036Z,5.55
2022-11-06T22:48:43.306Z,5.55
2022-11-06T22:51:13.307Z,5.57
2022-11-06T22:53:40.534Z,5.70
2022-11-06T22:56:08.204Z,6.40
2022-11-06T22:58:35.027Z,7.03
2022-11-06T23:01:01.694Z,7.10
2022-11-06T23:03:29.898Z,6.88
2022-11-06T23:06:02.051Z,7.25
2022-11-06T23:08:28.746Z,6.50
2022-11-06T23:10:55.944Z,6.53
2022-11-06T23:13:23.140Z,7.05
2022-11-06T23:15:50.321Z,6.60
2022-11-06T23:18:17.405Z,6.82
2022-11-06T23:20:43.994Z,7.45
2022-11-06T23:23:10.588Z,6.80
2022-11-06T23:25:37.924Z,7.45
2022-11-06T23:28:05.176Z,7.40
2022-11-06T23:30:31.958Z,6.93
2022-11-06T23:32:59.092Z,6.85
2022-11-06T23:35:32.108Z,7.50
2022-11-06T23:37:59.671Z,8.15
2022-11-06T23:40:27.019Z,7.63
2022-11-06T23:42:56.094Z,7.82
2022-11-06T23:45:38.215Z,7.25
2022-11-06T23:48:08.632Z,7.78
2022-11-06T23:50:35.674Z,7.07
2022-11-06T23:53:02.285Z,7.47
2022-11-06T23:55:32.737Z,7.70
2022-11-06T23:57:59.409Z,7.53
